Flight Track Log - Related Links

Times and Time Zones

All times are in EDT time to prevent confusion due to time zone crossing. See the CDG4723 flight status page for this flight to view local times or setup timezone preferences in your user account.

Time Position Orientation Groundspeed Altitude Reporting Facility
EDT Latitude Longitude Course Direction KTS MPH feet Rate Location/Type
Wed 07:11:00 PM 29.6020 107.5050 99° East  Level Estimated
Wed 07:12:00 PM 29.5869 107.6129 99° East  Level Estimated
Wed 07:13:00 PM 29.5717 107.7207 99° East  Level Estimated
Wed 07:14:00 PM 29.5565 107.8285 99° East  Level Estimated
Wed 07:15:00 PM 29.5412 107.9362 99° East  Level Estimated
Wed 07:16:00 PM 29.5271 108.0348 99° East  Level Estimated
Wed 07:17:00 PM 29.5129 108.1332 99° East  Level Estimated
Wed 07:18:00 PM 29.4987 108.2317 99° East  Level Estimated
Wed 07:19:00 PM 29.4844 108.3301 99° East  Level Estimated
Wed 07:20:00 PM 29.4700 108.4286 100° East  Level Estimated
Wed 07:21:00 PM 29.4555 108.5269 100° East  Level Estimated
Wed 07:22:00 PM 29.4410 108.6253 100° East  Level Estimated
Wed 07:23:00 PM 29.4264 108.7236 100° East  Level Estimated
Wed 07:24:00 PM 29.4117 108.8219 100° East  Level Estimated
Wed 07:25:00 PM 29.3969 108.9202 100° East  Level Estimated
Wed 07:26:00 PM 29.3821 109.0184 100° East  Level Estimated
Wed 07:27:00 PM 29.3672 109.1166 100° East  Level Estimated
Wed 07:28:00 PM 29.3523 109.2148 100° East  Level Estimated
Wed 07:29:00 PM 29.3372 109.3130 100° East  Level Estimated
Wed 07:30:00 PM 29.3221 109.4111 100° East  Level Estimated
Wed 07:31:00 PM 29.3070 109.5092 100° East  Level Estimated
Wed 07:32:00 PM 29.2917 109.6072 100° East  Level Estimated
Wed 07:33:00 PM 29.2764 109.7053 100° East  Level Estimated
Wed 07:34:00 PM 29.2610 109.8033 100° East  Level Estimated
Wed 07:35:00 PM 29.2455 109.9013 100° East  Level Estimated
Wed 07:36:00 PM 29.2300 109.9992 100° East  Level Estimated
Wed 07:37:00 PM 29.2144 110.0972 100° East  Level Estimated
Wed 07:38:00 PM 29.1987 110.1950 100° East  Level Estimated
Wed 07:39:00 PM 29.1830 110.2929 100° East  Level Estimated
Wed 07:40:00 PM 29.1671 110.3907 100° East  Level Estimated
Wed 07:41:00 PM 29.1513 110.4885 101° East  Level Estimated
Wed 07:42:00 PM 29.1353 110.5863 101° East  Level Estimated
Wed 07:43:00 PM 29.1193 110.6840 101° East  Level Estimated
Wed 07:44:00 PM 29.1032 110.7818 101° East  Level Estimated
Wed 07:45:00 PM 29.0870 110.8794 101° East  Level Estimated
Wed 07:46:00 PM 29.0707 110.9771 101° East  Level Estimated
Wed 07:47:00 PM 29.0544 111.0747 101° East  Level Estimated
Wed 07:48:00 PM 29.0380 111.1723 101° East  Level Estimated
Wed 07:49:00 PM 29.0216 111.2698 101° East  Level Estimated
Wed 07:50:00 PM 29.0050 111.3673 101° East  Level Estimated
Wed 07:51:00 PM 28.9884 111.4648 101° East  Level Estimated
Wed 07:52:00 PM 28.9718 111.5623 101° East  Level Estimated
Wed 07:53:00 PM 28.9550 111.6597 101° East  Level Estimated
Wed 07:54:00 PM 28.9382 111.7571 101° East  Level Estimated
Wed 07:55:00 PM 28.9213 111.8545 101° East  Level Estimated
Wed 07:56:00 PM 28.9044 111.9518 101° East  Level Estimated
Wed 07:57:00 PM 28.8874 112.0491 101° East  Level Estimated
Wed 07:58:00 PM 28.8703 112.1464 101° East  Level Estimated
Wed 07:59:00 PM 28.8531 112.2436 101° East  Level Estimated
Wed 08:00:00 PM 28.8359 112.3408 101° East  Level Estimated
Wed 08:01:00 PM 28.8186 112.4380 101° East  Level Estimated
Wed 08:02:00 PM 28.8012 112.5351 102° East  Level Estimated
Wed 08:03:00 PM 28.7838 112.6322 102° East  Level Estimated
Wed 08:04:00 PM 28.7663 112.7293 102° East  Level Estimated
Wed 08:05:00 PM 28.7487 112.8263 102° East  Level Estimated
Wed 08:06:00 PM 28.7310 112.9234 102° East  Level Estimated
Wed 08:07:00 PM 28.7133 113.0203 102° East  Level Estimated
Wed 08:08:00 PM 28.6956 113.1173 102° East  Level Estimated
Wed 08:09:00 PM 28.6777 113.2142 102° East  Level Estimated
Wed 08:10:00 PM 28.6598 113.3111 102° East  Level Estimated
Wed 08:11:00 PM 28.6418 113.4079 102° East  Level Estimated
Wed 08:12:00 PM 28.6237 113.5047 102° East  Level Estimated
Wed 08:13:00 PM 28.6056 113.6015 102° East  Level Estimated
Wed 08:14:00 PM 28.5874 113.6982 102° East  Level Estimated
Wed 08:15:00 PM 28.5691 113.7950 102° East  Level Estimated
Wed 08:16:00 PM 28.5508 113.8916 102° East  Level Estimated
Wed 08:17:00 PM 28.5324 113.9883 102° East  Level Estimated
Wed 08:18:00 PM 28.5139 114.0849 102° East  Level Estimated
Wed 08:19:00 PM 28.4954 114.1815 102° East  Level Estimated
Wed 08:20:00 PM 28.4768 114.2780 102° East  Level Estimated
Wed 08:21:00 PM 28.4581 114.3745 102° East  Level Estimated
Wed 08:22:00 PM 28.4394 114.4710 102° East  Level Estimated
Wed 08:23:00 PM 28.4206 114.5674 102° East  Level Estimated
Wed 08:24:00 PM 28.4017 114.6638 103° East  Level Estimated
Wed 08:25:00 PM 28.3827 114.7602 103° East  Level Estimated
Wed 08:26:00 PM 28.3637 114.8565 103° East  Level Estimated
Wed 08:27:00 PM 28.3446 114.9528 103° East  Level Estimated
Wed 08:28:00 PM 28.3255 115.0491 103° East  Level Estimated
Wed 08:29:00 PM 28.3063 115.1453 103° East  Level Estimated
Wed 08:30:00 PM 28.2870 115.2415 103° East  Level Estimated
Wed 08:31:00 PM 28.2676 115.3377 103° East  Level Estimated
Wed 08:32:00 PM 28.2482 115.4338 103° East  Level Estimated
Wed 08:33:00 PM 28.2287 115.5299 103° East  Level Estimated
Wed 08:34:00 PM 28.2092 115.6260 103° East  Level Estimated
Wed 08:35:00 PM 28.1896 115.7220 103° East  Level Estimated
Wed 08:36:00 PM 28.1699 115.8180 103° East  Level Estimated
Wed 08:37:00 PM 28.1501 115.9139 103° East  Level Estimated
Wed 08:38:00 PM 28.1303 116.0098 103° East  Level Estimated
Wed 08:39:00 PM 28.1104 116.1057 103° East  Level Estimated
Wed 08:40:00 PM 28.0904 116.2016 103° East  Level Estimated
Wed 08:41:00 PM 28.0704 116.2974 103° East  Level Estimated
Wed 08:42:00 PM 28.0503 116.3932 103° East  Level Estimated
Wed 08:43:00 PM 28.0302 116.4889 103° East  Level Estimated
Wed 08:44:00 PM 28.0100 116.5846 103° East  Level Estimated
Wed 08:45:00 PM 27.9897 116.6803 103° East  Level Estimated
Wed 08:46:00 PM 27.9693 116.7759 104° East  Level Estimated
Wed 08:47:00 PM 27.9489 116.8715 104° East  Level Estimated
Wed 08:48:00 PM 27.9284 116.9670 104° East  Level Estimated
Wed 08:49:00 PM 27.9079 117.0626 104° East  Level Estimated
Wed 08:50:00 PM 27.8872 117.1580 104° East  Level Estimated
Wed 08:51:00 PM 27.8666 117.2535 104° East  Level Estimated
Wed 08:52:00 PM 27.8458 117.3489 104° East  Level Estimated
Wed 08:53:00 PM 27.8250 117.4443 104° East  Level Estimated
Wed 08:54:00 PM 27.8041 117.5396 104° East  Level Estimated
Wed 08:55:00 PM 27.7832 117.6349 104° East  Level Estimated
Wed 08:56:00 PM 27.7622 117.7302 104° East  Level Estimated
Wed 08:57:00 PM 27.7411 117.8254 104° East  Level Estimated

Login

Don't have an account? Register now (free) for customized features, flight alerts, and more!